Time;durP1;ratioP1;P1;durP2;ratioP2;P2;SDS_P1;SDS_P2;PMS_P1;PMS_P2;Temp;Humidity;BMP_temperature;BMP_pressure;BME280_temperature;BME280_humidity;BME280_pressure;Samples;Min_cycle;Max_cycle;Signal;HPM_P1;HPM_P2
2023/04/13 00:00:06;;;;;;;4.50;1.27;;;7.00;96.70;;;;;;5029386;28;20506;-66
2023/04/13 00:02:37;;;;;;;1.10;1.00;;;7.10;96.80;;;;;;5028789;28;20530;-66
2023/04/13 00:05:06;;;;;;;2.50;0.90;;;7.10;96.50;;;;;;5029049;28;20445;-66
2023/04/13 00:07:32;;;;;;;1.20;1.00;;;7.00;96.40;;;;;;5029131;28;20455;-66
2023/04/13 00:10:01;;;;;;;2.97;0.87;;;7.10;96.70;;;;;;5041184;28;20485;-67
2023/04/13 00:12:28;;;;;;;1.53;0.60;;;7.00;96.10;;;;;;5048853;28;20489;-66
2023/04/13 00:14:55;;;;;;;1.90;1.53;;;7.00;95.90;;;;;;5050239;28;20449;-66
2023/04/13 00:17:23;;;;;;;1.20;0.70;;;6.90;95.90;;;;;;5048637;28;20530;-66
2023/04/13 00:19:52;;;;;;;1.10;1.00;;;6.90;96.40;;;;;;5049590;28;20472;-66
2023/04/13 00:22:19;;;;;;;1.10;0.80;;;6.90;96.40;;;;;;5048648;28;20449;-66
2023/04/13 00:24:46;;;;;;;3.13;1.10;;;6.80;96.40;;;;;;5046893;28;21180;-66
2023/04/13 00:27:14;;;;;;;1.50;0.90;;;6.70;96.30;;;;;;5049695;28;20456;-67
2023/04/13 00:29:41;;;;;;;1.00;0.90;;;6.60;96.50;;;;;;5050559;28;20457;-66
2023/04/13 00:32:08;;;;;;;1.80;1.20;;;6.70;96.40;;;;;;5050116;28;20491;-67
2023/04/13 00:34:35;;;;;;;1.60;1.10;;;6.80;96.30;;;;;;5049350;28;20454;-68
2023/04/13 00:37:02;;;;;;;1.33;1.20;;;6.80;96.20;;;;;;5044159;28;20460;-68
2023/04/13 00:39:30;;;;;;;1.47;0.97;;;6.80;96.10;;;;;;5031463;28;20452;-69
2023/04/13 00:41:58;;;;;;;1.70;0.70;;;6.90;95.60;;;;;;5030858;28;20525;-67
2023/04/13 00:44:27;;;;;;;1.07;0.80;;;6.90;96.00;;;;;;5031042;28;20640;-67
2023/04/13 00:46:55;;;;;;;1.80;1.20;;;7.00;96.00;;;;;;5030889;28;20455;-67
2023/04/13 00:49:22;;;;;;;2.13;0.73;;;6.90;96.00;;;;;;5031198;28;20446;-67
2023/04/13 00:51:50;;;;;;;1.43;0.90;;;6.90;96.40;;;;;;5041611;28;20491;-68
2023/04/13 00:54:18;;;;;;;1.70;1.40;;;6.90;96.10;;;;;;5050598;28;20443;-68
2023/04/13 00:56:45;;;;;;;1.20;0.80;;;6.80;95.90;;;;;;5050577;28;20463;-68
2023/04/13 00:59:13;;;;;;;0.80;0.50;;;6.80;96.40;;;;;;5050245;28;20455;-68
2023/04/13 01:01:49;;;;;;;2.60;0.70;;;6.80;96.60;;;;;;5050543;28;21258;-68
2023/04/13 01:04:17;;;;;;;2.00;0.73;;;6.80;96.10;;;;;;5042121;28;20527;-68
2023/04/13 01:06:52;;;;;;;1.00;0.70;;;6.90;96.00;;;;;;5031205;28;20442;-68
2023/04/13 01:09:26;;;;;;;1.27;0.73;;;6.90;95.50;;;;;;5031068;28;20549;-68
2023/04/13 01:11:58;;;;;;;0.90;0.70;;;6.80;95.50;;;;;;5030849;28;20488;-68
2023/04/13 01:14:33;;;;;;;0.83;0.50;;;6.70;95.10;;;;;;5031543;28;20457;-68
2023/04/13 01:17:05;;;;;;;1.00;0.60;;;6.70;95.30;;;;;;5030334;28;20833;-68
2023/04/13 01:19:48;;;;;;;1.10;1.00;;;6.60;95.40;;;;;;5030766;28;20459;-68
2023/04/13 01:22:16;;;;;;;0.60;0.50;;;6.60;95.70;;;;;;5030240;28;20508;-69
2023/04/13 01:24:58;;;;;;;0.60;0.50;;;6.70;94.70;;;;;;5030238;28;20446;-69
2023/04/13 01:27:41;;;;;;;0.90;0.50;;;6.70;94.90;;;;;;5035062;28;20508;-68
2023/04/13 01:30:10;;;;;;;1.03;0.70;;;6.80;94.10;;;;;;5049698;28;20528;-68
2023/04/13 01:32:37;;;;;;;1.47;0.77;;;6.70;94.30;;;;;;5049564;28;20514;-68
2023/04/13 01:35:09;;;;;;;2.10;0.70;;;6.60;94.30;;;;;;5050084;28;20524;-68
2023/04/13 01:37:36;;;;;;;3.33;0.60;;;6.50;94.00;;;;;;5050282;28;20451;-68
2023/04/13 01:40:10;;;;;;;1.20;0.80;;;6.40;94.40;;;;;;5050038;28;20474;-68
2023/04/13 01:42:38;;;;;;;0.80;0.53;;;6.40;94.20;;;;;;5049320;28;20452;-68
2023/04/13 01:45:09;;;;;;;0.90;0.50;;;6.30;94.40;;;;;;5047869;28;20449;-68
2023/04/13 01:47:38;;;;;;;1.07;0.53;;;6.10;94.70;;;;;;5049838;28;20453;-68
2023/04/13 01:50:13;;;;;;;1.50;1.40;;;6.00;95.20;;;;;;5049958;28;20488;-68
2023/04/13 01:52:42;;;;;;;0.60;0.60;;;5.90;95.00;;;;;;5049267;28;20482;-68
2023/04/13 01:55:11;;;;;;;0.93;0.73;;;5.90;95.20;;;;;;5049537;28;20491;-67
2023/04/13 01:57:44;;;;;;;1.30;1.13;;;5.80;94.90;;;;;;5032818;28;20954;-67
2023/04/13 02:00:13;;;;;;;0.97;0.47;;;5.80;95.60;;;;;;5029548;28;21005;-67
2023/04/13 02:02:39;;;;;;;1.80;0.77;;;5.70;95.30;;;;;;5029293;28;20458;-68
2023/04/13 02:05:08;;;;;;;0.90;0.60;;;5.70;95.80;;;;;;5029514;28;20457;-67
2023/04/13 02:07:36;;;;;;;1.70;0.73;;;5.70;95.30;;;;;;5029003;28;20449;-67
2023/04/13 02:10:04;;;;;;;1.27;0.90;;;5.80;95.70;;;;;;5030120;28;20508;-68
2023/04/13 02:12:32;;;;;;;2.00;0.90;;;5.80;95.60;;;;;;5049089;28;20569;-68
2023/04/13 02:15:00;;;;;;;0.60;0.50;;;6.00;95.70;;;;;;5049843;28;20445;-68
2023/04/13 02:17:28;;;;;;;0.80;0.60;;;6.10;95.60;;;;;;5049386;28;20456;-69
2023/04/13 02:19:55;;;;;;;1.00;0.70;;;6.10;94.50;;;;;;5049301;28;20449;-68
2023/04/13 02:22:22;;;;;;;1.00;0.67;;;6.20;94.10;;;;;;5047597;28;20493;-67
2023/04/13 02:24:50;;;;;;;0.90;0.80;;;6.20;94.20;;;;;;5049312;28;20460;-67
2023/04/13 02:27:17;;;;;;;1.27;0.70;;;6.20;94.20;;;;;;5049434;28;21000;-68
2023/04/13 02:29:43;;;;;;;1.37;1.00;;;6.20;93.60;;;;;;5049030;28;20455;-67
2023/04/13 02:32:12;;;;;;;4.00;1.00;;;6.10;93.80;;;;;;5049378;28;20482;-67
2023/04/13 02:34:39;;;;;;;2.33;1.00;;;6.00;94.20;;;;;;5048393;28;20481;-68
2023/04/13 02:37:08;;;;;;;1.93;1.00;;;6.00;94.60;;;;;;5029096;28;20527;-69
2023/04/13 02:39:34;;;;;;;2.40;0.70;;;5.90;94.00;;;;;;5029485;28;20450;-68
2023/04/13 02:42:02;;;;;;;2.27;0.90;;;6.00;94.10;;;;;;5029445;28;20477;-69
2023/04/13 02:44:29;;;;;;;1.00;0.63;;;5.90;93.60;;;;;;5029133;28;20449;-69
2023/04/13 02:46:55;;;;;;;1.93;0.80;;;5.80;93.80;;;;;;5029464;28;20821;-67
2023/04/13 02:49:24;;;;;;;3.03;0.97;;;5.80;93.80;;;;;;5029643;28;20455;-67
2023/04/13 02:51:51;;;;;;;4.93;3.43;;;5.80;94.40;;;;;;5030755;28;20478;-68
2023/04/13 02:54:18;;;;;;;1.80;0.60;;;5.60;94.30;;;;;;5029497;28;20831;-68
2023/04/13 02:56:45;;;;;;;1.30;0.80;;;5.50;94.10;;;;;;5030405;28;20802;-68
2023/04/13 02:59:12;;;;;;;1.17;0.60;;;5.60;94.70;;;;;;5029676;28;20456;-67
2023/04/13 03:01:40;;;;;;;1.30;1.10;;;5.60;94.40;;;;;;5029629;28;20973;-68
2023/04/13 03:04:08;;;;;;;1.73;0.70;;;5.60;94.00;;;;;;5029367;28;20457;-67
2023/04/13 03:06:36;;;;;;;1.67;0.70;;;5.50;94.50;;;;;;5029804;28;20485;-67
2023/04/13 03:09:04;;;;;;;2.03;0.70;;;5.30;94.60;;;;;;5031130;28;20460;-68
2023/04/13 03:11:31;;;;;;;1.97;0.77;;;5.20;94.80;;;;;;5029429;28;20478;-67
2023/04/13 03:14:00;;;;;;;1.43;0.80;;;5.10;95.10;;;;;;5029004;28;20555;-68
2023/04/13 03:16:27;;;;;;;3.97;0.67;;;5.10;95.60;;;;;;5029045;28;20463;-67
2023/04/13 03:18:54;;;;;;;2.00;0.80;;;5.00;95.60;;;;;;5030630;28;20464;-67
2023/04/13 03:21:21;;;;;;;1.10;0.87;;;5.00;95.80;;;;;;5032915;28;20476;-67
2023/04/13 03:23:49;;;;;;;0.80;0.60;;;5.00;95.40;;;;;;5032361;28;20445;-67
2023/04/13 03:26:16;;;;;;;1.00;0.83;;;5.00;95.70;;;;;;5048627;28;20876;-68
2023/04/13 03:28:43;;;;;;;4.20;1.13;;;4.90;95.90;;;;;;5052386;28;20454;-68
2023/04/13 03:31:10;;;;;;;3.60;1.03;;;4.80;95.90;;;;;;5052482;28;20547;-68
2023/04/13 03:33:37;;;;;;;1.20;1.03;;;4.90;96.20;;;;;;5052357;28;20476;-68
2023/04/13 03:36:04;;;;;;;3.87;1.10;;;4.90;96.10;;;;;;5052675;28;20455;-68
2023/04/13 03:38:31;;;;;;;3.50;0.70;;;4.90;96.10;;;;;;5052742;28;20452;-68
2023/04/13 03:40:59;;;;;;;2.17;0.80;;;5.00;95.90;;;;;;5049076;28;20544;-68
2023/04/13 03:43:26;;;;;;;1.17;1.00;;;5.00;95.40;;;;;;5032424;28;20476;-68
2023/04/13 03:45:53;;;;;;;1.30;1.00;;;5.10;95.60;;;;;;5032675;28;20644;-70
2023/04/13 03:48:20;;;;;;;3.13;1.00;;;5.10;95.30;;;;;;5032642;28;20511;-68
2023/04/13 03:50:46;;;;;;;1.00;0.60;;;5.10;95.30;;;;;;5032726;28;20990;-67
2023/04/13 03:53:13;;;;;;;1.63;0.97;;;5.20;95.10;;;;;;5031700;28;20488;-67
2023/04/13 03:55:40;;;;;;;1.37;1.03;;;5.20;94.90;;;;;;5032513;28;20454;-67
2023/04/13 03:58:08;;;;;;;2.30;1.00;;;5.20;94.90;;;;;;5033822;28;20463;-68
2023/04/13 04:00:35;;;;;;;1.63;0.80;;;5.20;95.00;;;;;;5032054;28;20515;-68
2023/04/13 04:03:02;;;;;;;1.53;0.93;;;5.30;94.70;;;;;;5031581;28;20927;-67
2023/04/13 04:05:29;;;;;;;1.33;0.67;;;5.40;94.90;;;;;;5031942;28;20457;-68
2023/04/13 04:07:56;;;;;;;1.37;0.70;;;5.60;94.50;;;;;;5031944;28;20451;-69
2023/04/13 04:10:23;;;;;;;1.20;1.10;;;5.70;94.20;;;;;;5031824;28;20469;-69
2023/04/13 04:12:50;;;;;;;1.80;0.90;;;5.90;94.00;;;;;;5040448;28;20851;-69
2023/04/13 04:15:18;;;;;;;2.60;1.10;;;5.90;93.80;;;;;;5051632;28;20432;-70
2023/04/13 04:17:45;;;;;;;1.30;0.70;;;6.10;93.20;;;;;;5052198;28;20449;-69
2023/04/13 04:20:13;;;;;;;0.80;0.80;;;6.20;92.80;;;;;;5052065;28;20806;-67
2023/04/13 04:22:40;;;;;;;1.00;0.80;;;6.20;93.10;;;;;;5051241;28;20482;-69
2023/04/13 04:25:08;;;;;;;3.93;1.37;;;6.10;93.30;;;;;;5051784;28;20452;-68
2023/04/13 04:27:37;;;;;;;4.73;0.93;;;6.10;92.80;;;;;;5037753;28;20453;-69
2023/04/13 04:30:05;;;;;;;2.37;1.10;;;6.10;92.80;;;;;;5031382;28;20485;-68
2023/04/13 04:32:35;;;;;;;2.73;0.90;;;6.10;92.80;;;;;;5031900;28;20447;-67
2023/04/13 04:35:03;;;;;;;1.30;1.00;;;6.10;93.20;;;;;;5031855;28;20443;-68
2023/04/13 04:37:36;;;;;;;2.97;0.90;;;6.20;92.40;;;;;;5031672;28;20446;-69
2023/04/13 04:40:09;;;;;;;1.10;0.70;;;6.30;91.80;;;;;;5031170;28;20492;-68
2023/04/13 04:42:37;;;;;;;0.83;0.63;;;6.40;91.70;;;;;;5031203;28;20437;-68
2023/04/13 04:45:04;;;;;;;1.67;0.80;;;6.50;90.80;;;;;;5031126;28;20885;-69
2023/04/13 04:47:31;;;;;;;1.00;0.90;;;6.50;90.80;;;;;;5031395;28;20571;-68
2023/04/13 04:50:00;;;;;;;0.93;0.70;;;6.50;91.10;;;;;;5031193;28;20537;-69
2023/04/13 04:52:28;;;;;;;1.40;0.80;;;6.60;90.20;;;;;;5030740;28;20454;-70
2023/04/13 04:54:55;;;;;;;2.93;1.33;;;6.70;89.20;;;;;;5034489;28;20513;-68
2023/04/13 04:57:22;;;;;;;1.37;0.80;;;6.70;89.70;;;;;;5050751;28;20448;-67
2023/04/13 04:59:49;;;;;;;1.83;0.83;;;6.70;89.30;;;;;;5051012;28;20459;-67
2023/04/13 05:02:16;;;;;;;1.60;0.83;;;6.70;90.30;;;;;;5050935;28;20452;-68
2023/04/13 05:04:43;;;;;;;1.77;1.10;;;6.70;88.80;;;;;;5050494;28;20448;-67
2023/04/13 05:07:16;;;;;;;3.10;1.03;;;6.70;90.00;;;;;;5050859;28;20830;-68
2023/04/13 05:09:44;;;;;;;3.87;0.90;;;6.80;88.00;;;;;;5042874;28;20470;-68
2023/04/13 05:12:11;;;;;;;1.90;0.97;;;6.80;88.80;;;;;;5030939;28;20455;-67
2023/04/13 05:14:38;;;;;;;2.97;1.03;;;6.80;86.80;;;;;;5030028;28;20490;-68
2023/04/13 05:17:05;;;;;;;1.80;0.80;;;6.90;87.70;;;;;;5030796;28;20857;-67
2023/04/13 05:19:33;;;;;;;1.53;0.80;;;7.00;85.30;;;;;;5030496;28;20445;-66
2023/04/13 05:22:00;;;;;;;7.70;1.67;;;7.00;86.40;;;;;;5030181;28;20474;-67
2023/04/13 05:24:29;;;;;;;3.27;1.17;;;7.10;85.80;;;;;;5041795;28;20502;-69
2023/04/13 05:26:57;;;;;;;1.63;1.00;;;7.10;86.50;;;;;;5050029;28;20988;-68
2023/04/13 05:29:24;;;;;;;2.60;0.90;;;7.00;86.80;;;;;;5050571;28;20461;-67
2023/04/13 05:31:51;;;;;;;1.73;0.90;;;7.10;85.00;;;;;;5049843;28;20883;-68
2023/04/13 05:34:18;;;;;;;2.60;0.97;;;7.20;83.30;;;;;;5049652;28;20483;-68
2023/04/13 05:36:45;;;;;;;4.17;1.07;;;7.30;81.90;;;;;;5050319;28;20453;-68
2023/04/13 05:39:12;;;;;;;2.70;1.13;;;7.20;84.10;;;;;;5033388;28;20454;-68
2023/04/13 05:41:40;;;;;;;4.80;1.37;;;7.20;82.90;;;;;;5030138;28;20475;-68
2023/04/13 05:44:07;;;;;;;3.00;1.00;;;7.20;84.40;;;;;;5029698;28;20471;-68
2023/04/13 05:46:34;;;;;;;1.80;1.03;;;7.20;82.80;;;;;;5029961;28;20824;-69
2023/04/13 05:49:01;;;;;;;4.17;1.27;;;7.20;82.70;;;;;;5030134;28;20460;-68
2023/04/13 05:51:30;;;;;;;2.20;1.07;;;7.40;81.40;;;;;;5030065;28;20492;-68
2023/04/13 05:53:57;;;;;;;4.13;1.00;;;7.40;82.70;;;;;;5049413;28;20561;-68
2023/04/13 05:56:24;;;;;;;2.90;1.00;;;7.40;81.50;;;;;;5048032;28;20449;-68
2023/04/13 05:58:53;;;;;;;4.43;1.23;;;7.50;80.30;;;;;;5032718;28;20949;-68
2023/04/13 06:01:19;;;;;;;5.50;1.50;;;7.50;80.60;;;;;;5029403;28;20561;-68
2023/04/13 06:03:46;;;;;;;2.60;2.20;;;7.50;82.20;;;;;;5029760;28;20450;-68
2023/04/13 06:06:13;;;;;;;2.30;1.30;;;7.40;79.50;;;;;;5029809;28;20473;-69
2023/04/13 06:08:40;;;;;;;2.03;0.90;;;7.40;80.70;;;;;;5029655;28;20450;-68
2023/04/13 06:11:07;;;;;;;1.23;0.80;;;7.60;79.50;;;;;;5039190;28;20509;-68
2023/04/13 06:13:34;;;;;;;3.87;1.17;;;7.50;80.10;;;;;;5048867;28;20483;-70
2023/04/13 06:16:02;;;;;;;4.67;1.10;;;7.60;79.40;;;;;;5049783;28;20537;-67
2023/04/13 06:18:29;;;;;;;2.00;0.97;;;7.80;78.00;;;;;;5049670;28;20455;-68
2023/04/13 06:20:57;;;;;;;2.50;0.90;;;7.90;77.30;;;;;;5049423;28;20467;-68
2023/04/13 06:23:24;;;;;;;7.00;2.10;;;8.00;76.50;;;;;;5049200;28;20946;-70
2023/04/13 06:25:51;;;;;;;7.00;1.10;;;8.00;79.10;;;;;;5034870;28;20459;-68
2023/04/13 06:28:18;;;;;;;2.97;1.30;;;8.00;75.10;;;;;;5029810;28;21173;-68
2023/04/13 06:30:45;;;;;;;2.33;1.03;;;8.00;74.70;;;;;;5029661;28;20468;-67
2023/04/13 06:33:14;;;;;;;3.20;1.00;;;8.00;73.50;;;;;;5029480;28;21051;-68
2023/04/13 06:35:41;;;;;;;4.87;1.23;;;7.90;75.80;;;;;;5029967;28;20476;-69
2023/04/13 06:38:09;;;;;;;4.23;1.10;;;8.00;76.20;;;;;;5029426;28;20451;-67
2023/04/13 06:40:36;;;;;;;4.23;2.53;;;8.00;75.30;;;;;;5047779;28;20494;-68
2023/04/13 06:43:03;;;;;;;3.80;1.00;;;8.20;74.90;;;;;;5049019;28;20454;-68
2023/04/13 06:45:32;;;;;;;2.63;1.20;;;8.20;74.10;;;;;;5049801;28;20445;-68
2023/04/13 06:47:59;;;;;;;2.87;0.93;;;8.30;74.70;;;;;;5049832;28;20446;-70
2023/04/13 06:50:27;;;;;;;2.50;0.77;;;8.30;71.50;;;;;;5049640;28;20464;-68
2023/04/13 06:52:54;;;;;;;3.27;1.23;;;8.40;73.00;;;;;;5046474;28;20507;-69
2023/04/13 06:55:21;;;;;;;4.00;2.03;;;8.50;72.40;;;;;;5033615;28;20599;-68
2023/04/13 06:57:48;;;;;;;5.27;1.40;;;8.60;69.60;;;;;;5033880;28;20453;-69
2023/04/13 07:00:16;;;;;;;3.67;0.90;;;8.70;70.90;;;;;;5033480;28;21027;-69
2023/04/13 07:02:43;;;;;;;2.60;0.63;;;8.80;69.90;;;;;;5033282;28;20459;-68
2023/04/13 07:05:11;;;;;;;2.60;0.83;;;8.80;71.20;;;;;;5033448;28;20456;-68
2023/04/13 07:07:40;;;;;;;3.97;1.03;;;8.90;69.80;;;;;;5040049;28;20507;-68
2023/04/13 07:10:08;;;;;;;2.90;1.17;;;9.00;68.90;;;;;;5052886;28;20467;-68
2023/04/13 07:12:35;;;;;;;3.73;1.40;;;9.00;68.20;;;;;;5052604;28;20455;-68
2023/04/13 07:15:02;;;;;;;4.70;1.50;;;9.00;68.90;;;;;;5052673;28;20858;-68
2023/04/13 07:17:29;;;;;;;4.07;1.47;;;9.00;67.60;;;;;;5052896;28;20469;-70
2023/04/13 07:19:56;;;;;;;6.17;1.40;;;8.90;67.20;;;;;;5052942;28;20444;-69
2023/04/13 07:22:30;;;;;;;4.47;1.30;;;8.90;68.80;;;;;;5040821;28;20453;-69
2023/04/13 07:24:58;;;;;;;5.30;1.07;;;8.90;69.90;;;;;;5033982;28;20451;-69
2023/04/13 07:27:25;;;;;;;3.33;1.30;;;8.90;68.80;;;;;;5033424;28;20543;-69
2023/04/13 07:29:52;;;;;;;2.57;1.10;;;9.00;68.40;;;;;;5032593;28;20441;-69
2023/04/13 07:32:20;;;;;;;2.57;1.07;;;9.10;69.70;;;;;;5032884;28;20448;-68
2023/04/13 07:34:46;;;;;;;3.00;1.10;;;9.30;67.00;;;;;;5032576;28;20480;-67
2023/04/13 07:37:13;;;;;;;2.83;1.13;;;9.30;68.00;;;;;;5049871;28;20539;-67
2023/04/13 07:39:42;;;;;;;4.93;1.30;;;9.40;67.10;;;;;;5052862;28;20444;-68
2023/04/13 07:42:10;;;;;;;2.97;1.30;;;9.50;66.50;;;;;;5053263;28;20540;-70
2023/04/13 07:44:37;;;;;;;5.07;1.80;;;9.50;66.50;;;;;;5052651;28;20446;-68
2023/04/13 07:47:03;;;;;;;4.40;1.13;;;9.40;65.50;;;;;;5052315;28;20448;-68
2023/04/13 07:49:30;;;;;;;4.83;1.40;;;9.50;66.90;;;;;;5051389;28;20955;-68
2023/04/13 07:51:58;;;;;;;3.57;1.10;;;9.50;65.30;;;;;;5032146;28;20465;-69
2023/04/13 07:54:25;;;;;;;1.90;0.83;;;9.70;64.80;;;;;;5034812;28;20899;-68
2023/04/13 07:56:52;;;;;;;6.63;1.37;;;9.80;63.40;;;;;;5051369;28;20448;-67
2023/04/13 07:59:20;;;;;;;3.27;1.00;;;9.90;62.80;;;;;;5051724;28;20854;-68
2023/04/13 08:01:47;;;;;;;3.00;1.33;;;10.00;61.10;;;;;;5051847;28;20440;-68
2023/04/13 08:04:13;;;;;;;7.10;1.50;;;10.10;62.30;;;;;;5051238;28;20202;-70
2023/04/13 08:06:40;;;;;;;3.77;1.30;;;10.20;60.80;;;;;;5051136;28;20484;-69
2023/04/13 08:09:08;;;;;;;4.30;1.13;;;10.30;61.40;;;;;;5051840;28;20448;-68
2023/04/13 08:11:35;;;;;;;3.83;1.57;;;10.30;63.20;;;;;;5037820;28;20477;-67
2023/04/13 08:14:02;;;;;;;6.87;1.40;;;10.30;62.00;;;;;;5031660;28;20482;-68
2023/04/13 08:16:33;;;;;;;2.60;0.93;;;10.30;60.70;;;;;;5031865;28;20435;-70
2023/04/13 08:19:00;;;;;;;2.53;1.40;;;10.30;62.10;;;;;;5031768;28;20446;-67
2023/04/13 08:21:28;;;;;;;5.47;1.50;;;10.30;60.10;;;;;;5031672;28;21302;-68
2023/04/13 08:23:56;;;;;;;3.77;1.60;;;10.30;61.70;;;;;;5031379;28;20456;-68
2023/04/13 08:26:23;;;;;;;5.17;1.30;;;10.40;62.90;;;;;;5050142;28;20453;-68
2023/04/13 08:28:51;;;;;;;4.63;1.73;;;10.40;60.70;;;;;;5051207;28;20445;-67
2023/04/13 08:31:19;;;;;;;3.33;1.30;;;10.40;61.40;;;;;;5051305;28;20465;-68
2023/04/13 08:33:47;;;;;;;4.50;1.90;;;10.50;61.40;;;;;;5051266;28;20452;-67
2023/04/13 08:36:15;;;;;;;9.23;1.57;;;10.50;60.60;;;;;;5051191;28;20457;-67
2023/04/13 08:38:41;;;;;;;6.50;1.30;;;10.40;60.20;;;;;;5048552;28;20582;-67
2023/04/13 08:41:09;;;;;;;6.27;1.63;;;10.30;60.20;;;;;;5048789;28;20468;-68
2023/04/13 08:43:36;;;;;;;3.33;1.83;;;10.20;61.10;;;;;;5051641;28;20444;-67
2023/04/13 08:46:03;;;;;;;6.00;1.70;;;10.10;60.20;;;;;;5051322;28;20445;-67
2023/04/13 08:48:32;;;;;;;7.23;1.40;;;10.10;61.00;;;;;;5047593;28;20538;-68
2023/04/13 08:51:01;;;;;;;6.63;1.50;;;10.00;63.40;;;;;;5047154;28;20470;-68
2023/04/13 08:53:28;;;;;;;2.93;1.83;;;10.10;62.80;;;;;;5034789;28;20440;-68
2023/04/13 08:55:56;;;;;;;3.00;1.23;;;10.20;63.30;;;;;;5048215;28;20488;-67
2023/04/13 08:58:26;;;;;;;5.60;1.20;;;10.20;62.40;;;;;;5047764;28;20458;-68
2023/04/13 09:00:56;;;;;;;4.40;2.70;;;10.20;62.20;;;;;;5049949;28;20481;-68
2023/04/13 09:03:24;;;;;;;4.90;1.20;;;10.30;60.50;;;;;;5035993;28;20454;-68
2023/04/13 09:05:57;;;;;;;4.70;1.43;;;10.20;59.10;;;;;;5038426;28;20456;-68
2023/04/13 09:08:26;;;;;;;3.00;1.10;;;10.20;61.60;;;;;;5044374;28;20448;-66
2023/04/13 09:10:55;;;;;;;4.10;1.20;;;10.30;60.00;;;;;;5049511;28;20476;-67
2023/04/13 09:13:22;;;;;;;4.50;1.63;;;10.40;61.90;;;;;;5049684;28;20479;-66
2023/04/13 09:15:49;;;;;;;4.87;1.17;;;10.70;60.50;;;;;;5049956;28;20486;-68
2023/04/13 09:18:16;;;;;;;3.77;1.30;;;11.10;59.60;;;;;;5048866;28;21134;-66
2023/04/13 09:20:43;;;;;;;2.67;1.40;;;11.20;58.40;;;;;;5047616;28;20503;-67
2023/04/13 09:23:17;;;;;;;3.43;1.30;;;11.30;57.30;;;;;;5049915;28;20491;-67
2023/04/13 09:25:47;;;;;;;4.83;1.60;;;11.30;57.80;;;;;;5050346;28;20848;-67
2023/04/13 09:28:18;;;;;;;2.60;1.93;;;11.40;58.10;;;;;;5047560;28;20460;-67
2023/04/13 09:30:45;;;;;;;3.67;1.80;;;11.80;56.70;;;;;;5043669;28;20563;-67
2023/04/13 09:33:14;;;;;;;2.00;1.00;;;11.90;57.10;;;;;;5041279;28;20529;-66
2023/04/13 09:35:41;;;;;;;3.80;1.50;;;11.60;55.90;;;;;;5049612;28;21044;-67
2023/04/13 09:38:10;;;;;;;2.53;1.00;;;11.60;57.50;;;;;;5050158;28;20451;-68
2023/04/13 09:40:49;;;;;;;3.87;1.70;;;11.40;56.10;;;;;;5048882;28;21008;-68
2023/04/13 09:43:16;;;;;;;5.00;1.57;;;11.10;56.40;;;;;;5049845;28;20497;-66
2023/04/13 09:45:44;;;;;;;3.70;1.13;;;10.90;56.20;;;;;;5045808;28;20797;-67
2023/04/13 09:48:17;;;;;;;4.80;1.50;;;10.70;56.40;;;;;;5049299;28;20499;-68
2023/04/13 09:50:44;;;;;;;1.87;0.70;;;10.50;55.40;;;;;;5049521;28;20888;-68
2023/04/13 09:53:11;;;;;;;2.77;1.13;;;10.40;57.20;;;;;;5049189;28;20968;-67
2023/04/13 09:55:39;;;;;;;5.60;1.37;;;10.50;56.00;;;;;;5049579;28;20919;-67
2023/04/13 09:58:12;;;;;;;3.83;1.17;;;10.40;56.10;;;;;;5047818;28;20498;-67
2023/04/13 10:00:40;;;;;;;1.67;1.27;;;10.40;56.90;;;;;;5048664;28;20480;-68
2023/04/13 10:03:10;;;;;;;5.70;1.60;;;10.40;58.20;;;;;;5046063;28;21053;-68
2023/04/13 10:05:38;;;;;;;4.00;1.20;;;10.40;58.50;;;;;;5048949;28;20446;-67
2023/04/13 10:08:06;;;;;;;3.77;1.20;;;10.40;57.40;;;;;;5048902;28;20440;-67
2023/04/13 10:10:33;;;;;;;1.80;1.20;;;10.30;56.30;;;;;;5046871;28;20491;-68
2023/04/13 10:13:05;;;;;;;6.10;1.43;;;10.50;56.20;;;;;;5044435;28;20809;-67
2023/04/13 10:15:48;;;;;;;4.77;1.47;;;10.60;56.50;;;;;;5047546;28;20929;-67
2023/04/13 10:18:27;;;;;;;6.40;1.73;;;10.70;56.10;;;;;;5047188;28;20441;-67
2023/04/13 10:20:56;;;;;;;3.63;1.20;;;10.50;56.00;;;;;;5049984;28;20452;-67
2023/04/13 10:23:23;;;;;;;6.27;1.50;;;10.50;57.00;;;;;;5045287;28;20452;-68
2023/04/13 10:25:51;;;;;;;3.77;1.33;;;10.50;57.50;;;;;;5049087;28;21031;-68
2023/04/13 10:28:18;;;;;;;4.07;1.60;;;10.70;56.90;;;;;;5049462;28;20480;-68
2023/04/13 10:30:50;;;;;;;2.37;1.17;;;10.80;57.40;;;;;;5050717;28;20472;-67
2023/04/13 10:33:17;;;;;;;3.03;1.10;;;11.00;56.40;;;;;;5051059;28;20534;-67
2023/04/13 10:35:55;;;;;;;3.10;1.50;;;11.00;55.40;;;;;;5053220;28;20482;-68
2023/04/13 10:38:22;;;;;;;6.07;1.53;;;10.70;55.50;;;;;;5043634;28;20441;-66
2023/04/13 10:40:50;;;;;;;4.27;1.37;;;10.30;56.20;;;;;;5051427;28;20465;-67
2023/04/13 10:43:26;;;;;;;4.90;1.57;;;10.10;56.80;;;;;;5053166;28;20459;-68
2023/04/13 10:46:06;;;;;;;3.07;1.10;;;10.10;57.50;;;;;;5053281;28;20440;-68
2023/04/13 10:48:33;;;;;;;2.33;1.23;;;10.10;57.40;;;;;;5053355;28;20440;-69
2023/04/13 10:51:01;;;;;;;3.20;1.40;;;10.10;57.70;;;;;;5053523;28;20504;-70
2023/04/13 10:53:29;;;;;;;4.80;1.63;;;10.30;58.10;;;;;;5052678;28;21009;-69
2023/04/13 10:55:56;;;;;;;2.80;1.20;;;10.30;59.10;;;;;;5048362;28;20521;-68
2023/04/13 10:58:23;;;;;;;4.93;1.30;;;10.30;58.40;;;;;;5050081;28;20456;-68
2023/04/13 11:00:51;;;;;;;2.13;1.50;;;10.30;59.00;;;;;;5051896;28;20500;-69
2023/04/13 11:03:19;;;;;;;3.57;1.07;;;10.40;59.40;;;;;;5051790;28;20458;-68
2023/04/13 11:05:47;;;;;;;2.33;1.90;;;10.50;58.70;;;;;;5049390;28;20513;-68
2023/04/13 11:08:19;;;;;;;4.63;2.13;;;10.50;58.90;;;;;;5051773;28;20453;-68
2023/04/13 11:10:51;;;;;;;5.50;1.47;;;10.40;60.60;;;;;;5049326;28;20470;-68
2023/04/13 11:13:18;;;;;;;5.93;2.27;;;10.20;63.00;;;;;;5052298;28;20526;-69
2023/04/13 11:15:45;;;;;;;5.50;2.00;;;10.00;61.60;;;;;;5048890;28;20590;-68
2023/04/13 11:18:12;;;;;;;4.80;2.00;;;9.80;66.60;;;;;;5051185;28;21211;-68
2023/04/13 11:20:41;;;;;;;4.17;1.33;;;9.80;63.00;;;;;;5050089;28;20467;-68
2023/04/13 11:23:16;;;;;;;3.63;1.20;;;9.70;63.90;;;;;;5051484;28;20445;-69
2023/04/13 11:25:53;;;;;;;4.33;1.70;;;9.50;71.40;;;;;;5050253;28;20501;-68
2023/04/13 11:28:21;;;;;;;5.53;1.90;;;9.20;76.00;;;;;;5051338;28;20439;-68
2023/04/13 11:30:53;;;;;;;5.77;1.60;;;8.80;82.30;;;;;;5051766;28;20467;-69
2023/04/13 11:33:25;;;;;;;8.33;2.33;;;8.50;86.40;;;;;;5050962;28;20955;-68
2023/04/13 11:35:54;;;;;;;5.00;1.97;;;8.10;87.00;;;;;;5041470;28;20482;-68
2023/04/13 11:38:21;;;;;;;5.33;1.83;;;8.00;89.00;;;;;;5050079;28;20473;-68
2023/04/13 11:40:48;;;;;;;7.57;2.00;;;8.10;91.40;;;;;;5048006;28;20470;-68
2023/04/13 11:43:16;;;;;;;5.90;1.70;;;8.30;93.20;;;;;;5037602;28;20465;-69
2023/04/13 11:45:43;;;;;;;6.30;1.37;;;8.40;90.80;;;;;;5050154;28;20440;-68
2023/04/13 11:48:11;;;;;;;4.67;1.73;;;8.40;90.80;;;;;;5049677;28;20451;-68
2023/04/13 11:50:38;;;;;;;5.90;2.13;;;8.40;93.60;;;;;;5050334;28;20478;-68
2023/04/13 11:53:08;;;;;;;8.43;3.50;;;8.40;92.00;;;;;;5049495;28;20471;-69
2023/04/13 11:55:37;;;;;;;5.03;2.40;;;8.50;92.40;;;;;;5049940;28;20475;-68
2023/04/13 11:58:08;;;;;;;4.10;1.87;;;9.30;95.60;;;;;;5049547;28;20819;-69
2023/04/13 12:00:38;;;;;;;4.87;1.90;;;11.20;92.90;;;;;;5046270;28;20480;-69
2023/04/13 12:03:12;;;;;;;3.67;1.80;;;12.60;79.50;;;;;;5049269;28;20481;-67
2023/04/13 12:05:39;;;;;;;4.70;1.80;;;12.30;79.30;;;;;;5050266;28;21096;-69
2023/04/13 12:08:07;;;;;;;5.93;2.33;;;11.70;82.40;;;;;;5049128;28;20465;-68
2023/04/13 12:10:35;;;;;;;3.53;2.00;;;11.40;84.40;;;;;;5050013;28;20475;-67
2023/04/13 12:13:05;;;;;;;3.00;1.27;;;11.50;89.80;;;;;;5049134;28;20502;-69
2023/04/13 12:15:33;;;;;;;3.30;1.73;;;12.10;84.20;;;;;;5049925;28;20519;-67
2023/04/13 12:18:02;;;;;;;3.27;1.20;;;13.30;81.90;;;;;;5049798;28;20893;-67
2023/04/13 12:20:35;;;;;;;4.47;1.10;;;13.60;75.50;;;;;;5049283;28;20470;-68
2023/04/13 12:23:02;;;;;;;2.30;0.60;;;13.50;71.60;;;;;;5049234;28;20834;-67
2023/04/13 12:25:32;;;;;;;2.07;0.77;;;12.70;71.00;;;;;;5049562;28;20928;-67
2023/04/13 12:27:58;;;;;;;3.17;0.90;;;12.20;75.20;;;;;;5045242;28;20464;-71
2023/04/13 12:30:26;;;;;;;1.90;0.97;;;11.70;75.60;;;;;;5039053;28;20461;-68
2023/04/13 12:32:54;;;;;;;3.47;1.10;;;11.20;80.60;;;;;;5046070;28;20501;-68
2023/04/13 12:35:21;;;;;;;2.83;1.40;;;11.00;83.80;;;;;;5049089;28;20554;-67
2023/04/13 12:37:49;;;;;;;5.23;1.57;;;10.80;84.10;;;;;;5048618;28;20535;-68
2023/04/13 12:40:17;;;;;;;2.73;0.93;;;10.70;79.70;;;;;;5044983;28;20472;-67
2023/04/13 12:42:46;;;;;;;3.97;1.17;;;10.60;83.40;;;;;;5047660;28;20462;-68
2023/04/13 12:45:13;;;;;;;3.67;1.10;;;10.50;86.30;;;;;;5046507;28;20460;-68
2023/04/13 12:47:41;;;;;;;4.00;1.63;;;10.80;86.90;;;;;;5049212;28;20825;-68
2023/04/13 12:50:10;;;;;;;6.13;1.57;;;11.20;86.30;;;;;;5047944;28;20471;-68
2023/04/13 12:52:39;;;;;;;3.47;1.00;;;11.60;83.70;;;;;;5045629;28;21151;-68
2023/04/13 12:55:07;;;;;;;2.23;1.20;;;11.90;82.80;;;;;;5049027;28;20452;-68
2023/04/13 12:57:34;;;;;;;3.60;1.57;;;12.30;82.50;;;;;;5048249;28;20457;-69